CSUN Campus Station - National Weather Service Data Page - PST Time




                Date      RH     Dew  Seasonal     Current   Max Air   Min Air    Wind    Wind    Wind    Gust     Bar    Rain
                Time       %   Point      Rain    Air Temp     Since     Since   Speed    Gust     Dir     Dir   Press   Total
                               Deg F    Inches       Deg F  Midnight  Midnight     MPH     MPH                      mb  Inches
------------------------------------------------------------------------------------------------------------------------------
    05/26/2015 00:00      69    50.6      9.01        60.8      72.0      52.3       1       3      74      52    1014    0.00
    05/26/2015 00:10      69    50.5      9.01        60.7      60.9      60.5       1       3      78      87    1014    0.00
    05/26/2015 00:20      70    50.6      9.01        60.7      60.9      60.5       2       3      67      74    1014    0.00
    05/26/2015 00:30      71    50.8      9.01        60.5      60.9      60.1       1       3     173     174    1014    0.00
    05/26/2015 00:40      71    50.7      9.01        60.2      60.9      60.0       2       3     156     159    1014    0.00
    05/26/2015 00:50      71    50.6      9.01        60.1      60.9      59.9       2       3     156     159    1014    0.00
    05/26/2015 01:00      72    50.6      9.01        60.0      60.9      59.9       2       5     150     170    1014    0.00
    05/26/2015 01:10      72    50.9      9.01        59.9      60.9      59.7       1       4     165     164    1014    0.00
    05/26/2015 01:20      72    50.8      9.01        59.9      60.9      59.7       0       1     168     145    1013    0.00
    05/26/2015 01:30      72    50.8      9.01        59.9      60.9      59.6       2       3     191     208    1013    0.00
    05/26/2015 01:40      72    50.8      9.01        59.7      60.9      59.5       0       3     211     194    1013    0.00
    05/26/2015 01:50      72    50.9      9.01        59.8      60.9      59.5       1       3     191     180    1013    0.00
    05/26/2015 02:00      72    50.9      9.01        59.8      60.9      59.5       2       3     169     171    1013    0.00
    05/26/2015 02:10      72    51.0      9.01        59.9      60.9      59.5       2       3     140     149    1013    0.00
    05/26/2015 02:20      72    50.9      9.01        59.8      60.9      59.5       0       3     163     146    1013    0.00
    05/26/2015 02:30      73    51.0      9.01        59.9      60.9      59.5       2       5     156     134    1013    0.00
    05/26/2015 02:40      73    51.0      9.01        59.8      60.9      59.5       2       5     146     160    1013    0.00
    05/26/2015 02:50      73    51.1      9.01        59.7      60.9      59.5       2       5     176     159    1014    0.00
    05/26/2015 03:00      74    51.1      9.01        59.6      60.9      59.4       3       5     190     164    1014    0.00
    05/26/2015 03:10      73    51.1      9.01        59.5      60.9      59.3       3       6     173     147    1014    0.00
    05/26/2015 03:20      73    51.0      9.01        59.5      60.9      59.3       3       6     153     132    1014    0.00
    05/26/2015 03:30      73    51.0      9.01        59.5      60.9      59.3       2       5     127     149    1014    0.00
    05/26/2015 03:40      73    50.9      9.01        59.6      60.9      59.3       2       4     103      84    1014    0.00
    05/26/2015 03:50      73    51.0      9.01        59.7      60.9      59.3       2       4     136     148    1014    0.00
    05/26/2015 04:00      74    51.0      9.01        59.4      60.9      59.1       3       6     158     151    1014    0.00
    05/26/2015 04:10      75    51.2      9.01        59.3      60.9      59.0       3       5     145     172    1014    0.00
    05/26/2015 04:20      76    51.1      9.01        59.0      60.9      58.6       3       6     139     165    1014    0.00
    05/26/2015 04:30      76    51.2      9.01        58.7      60.9      58.6       3       6     149     152    1014    0.00
    05/26/2015 04:40      76    51.2      9.01        58.6      60.9      58.4       4       7     162     167    1014    0.00
    05/26/2015 04:50      77    51.1      9.01        58.4      60.9      58.1       4       7     155     166    1014    0.00
    05/26/2015 05:00      77    51.1      9.01        58.3      60.9      58.1       3       6     147     149    1014    0.00
    05/26/2015 05:10      77    51.1      9.01        58.2      60.9      57.9       2       4     163     181    1014    0.00
    05/26/2015 05:20      78    51.1      9.01        58.0      60.9      57.8       3       4     156     169    1014    0.00
    05/26/2015 05:30      78    51.3      9.01        58.0      60.9      57.8       2       4     153     185    1014    0.00
    05/26/2015 05:40      77    51.3      9.01        58.2      60.9      57.8       1       3     123      70    1014    0.00
    05/26/2015 05:50      78    51.2      9.01        58.2      60.9      57.8       2       3     145     153    1014    0.00
    05/26/2015 06:00      78    51.3      9.01        58.1      60.9      57.8       2       3     129     138    1014    0.00
    05/26/2015 06:10      78    51.4      9.01        58.1      60.9      57.8       2       4     143     169    1014    0.00
    05/26/2015 06:20      78    51.4      9.01        58.1      60.9      57.8       2       4     143     152    1014    0.00
    05/26/2015 06:30      78    51.5      9.01        58.1      60.9      57.8       2       4     159     175    1014    0.00
    05/26/2015 06:40      78    51.6      9.01        58.2      60.9      57.8       3       4     164     144    1014    0.00
    05/26/2015 06:50      78    51.6      9.01        58.3      60.9      57.8       2       3     143     179    1014    0.00
    05/26/2015 07:00      77    51.5      9.01        58.4      60.9      57.8       2       4     143     156    1014    0.00
    05/26/2015 07:10      77    51.6      9.01        58.6      60.9      57.8       2       3     169     171    1014    0.00
    05/26/2015 07:20      75    51.6      9.01        59.1      60.9      57.8       2       4     141     151    1014    0.00
    05/26/2015 07:30      76    51.6      9.01        59.3      60.9      57.8       3       5     155     176    1014    0.00
    05/26/2015 07:40      75    51.5      9.01        59.3      60.9      57.8       3       5     152     168    1015    0.00
    05/26/2015 07:50      76    51.4      9.01        59.1      60.9      57.8       2       5     182     184    1015    0.00
    05/26/2015 08:00      74    51.4      9.01        59.5      60.9      57.8       0       3     108      97    1015    0.00
    05/26/2015 08:10      73    51.4      9.01        59.9      60.9      57.8       2       4     137     122    1015    0.00
    05/26/2015 08:20      72    51.1      9.01        60.0      60.9      57.8       1       4      50      67    1014    0.00
    05/26/2015 08:30      71    51.0      9.01        60.0      60.9      57.8       3       5      71      88    1014    0.00
    05/26/2015 08:40      72    50.9      9.01        60.1      60.9      57.8       2       4      54      57    1014    0.00
    05/26/2015 08:50      71    51.0      9.01        60.3      60.9      57.8       1       4     161      62    1014    0.00
    05/26/2015 09:00      71    51.0      9.01        60.5      60.9      57.8       2       4      26      28    1014    0.00
    05/26/2015 09:10      70    51.0      9.01        60.8      61.0      57.8       2       5      80      93    1014    0.00
    05/26/2015 09:20      69    51.1      9.01        61.0      61.5      57.8       0       2      82      93    1014    0.00
    05/26/2015 09:30      69    51.1      9.01        61.3      61.6      57.8       2       4     138     172    1014    0.00
    05/26/2015 09:40      70    51.1      9.01        61.1      61.6      57.8       2       4      70      89    1014    0.00
    05/26/2015 09:50      69    51.2      9.01        61.5      61.9      57.8       0       3      65     140    1014    0.00
    05/26/2015 10:00      69    51.2      9.01        61.8      62.0      57.8       2       3     193     178    1015    0.00
    05/26/2015 10:10      67    51.1      9.01        61.9      62.1      57.8       1       3     275     287    1015    0.00
    05/26/2015 10:20      65    51.3      9.01        62.5      63.4      57.8       0       2      32      35    1015    0.00
    05/26/2015 10:30      66    51.0      9.01        62.9      63.6      57.8       0       2      10      48    1015    0.00
    05/26/2015 10:40      64    51.3      9.01        63.2      63.6      57.8       2       5     284     249    1015    0.00
    05/26/2015 10:50      65    51.3      9.01        63.4      63.9      57.8       2       4     221     173    1015    0.00
    05/26/2015 11:00      62    51.5      9.01        64.2      64.7      57.8       2       4     203     180    1015    0.00
    05/26/2015 11:10      61    51.3      9.01        64.7      65.1      57.8       1       3     224      69    1015    0.00
    05/26/2015 11:20      62    51.1      9.01        64.6      65.1      57.8       2       4      78      63    1015    0.00
    05/26/2015 11:30      60    51.3      9.01        65.3      65.8      57.8       2       4     248     283    1014    0.00
    05/26/2015 11:40      60    51.3      9.01        65.3      65.9      57.8       2       5     275     294    1014    0.00
    05/26/2015 11:50      59    51.4      9.01        66.3      66.8      57.8       3       6      67      87    1014    0.00
    05/26/2015 12:00      56    51.6      9.01        67.0      68.0      57.8       2       5     161     145    1014    0.00
    05/26/2015 12:10      53    51.3      9.01        68.2      69.2      57.8       1       5     225     216    1014    0.00
    05/26/2015 12:20      55    51.0      9.01        68.9      69.3      57.8       2       5     311     244    1014    0.00
    05/26/2015 12:30      53    51.4      9.01        69.3      69.8      57.8       3       6     202     181    1014    0.00
    05/26/2015 12:40      53    50.6      9.01        68.8      69.8      57.8       2       4     223     187    1014    0.00
    05/26/2015 12:50      53    50.7      9.01        69.3      69.8      57.8       2       4     326     343    1014    0.00
    05/26/2015 13:00      51    51.7      9.01        70.7      71.1      57.8       3       9     159     148    1014    0.00
    05/26/2015 13:10      52    51.7      9.01        70.2      71.1      57.8       4       8     122      95    1013    0.00
    05/26/2015 13:20      50    51.5      9.01        70.8      71.3      57.8       2       7     154     149    1013    0.00
    05/26/2015 13:30      50    51.5      9.01        70.8      71.5      57.8       3       7     106      82    1013    0.00
    05/26/2015 13:40      50    52.1      9.01        71.3      72.2      57.8       4       8     138     155    1013    0.00
    05/26/2015 13:50      48    51.7      9.01        72.3      73.0      57.8       3       6     134     164    1013    0.00
    05/26/2015 14:00      49    51.6      9.01        71.6      73.0      57.8       4       9     173     164    1013    0.00
    05/26/2015 14:10      47    51.4      9.01        71.7      73.0      57.8       3       6     213     142    1013    0.00
    05/26/2015 14:20      46    51.3      9.01        72.5      73.8      57.8       2       7     100     148    1013    0.00
    05/26/2015 14:30      46    51.0      9.01        73.0      73.8      57.8       2       7     124     115    1013    0.00
    05/26/2015 14:40      46    51.1      9.01        73.0      73.8      57.8       2       5     150     103    1013    0.00
    05/26/2015 14:50      46    51.5      9.01        73.3      73.8      57.8       3       9     135     136    1013    0.00
    05/26/2015 15:00      50    51.5      9.01        72.2      73.8      57.8       4      11     119     101    1013    0.00
    05/26/2015 15:10      47    52.2      9.01        72.3      73.8      57.8       6      11     148     133    1013    0.00
    05/26/2015 15:20      47    52.0      9.01        72.8      73.8      57.8       4       8     147     157    1013    0.00
    05/26/2015 15:30      46    51.6      9.01        72.8      73.8      57.8       4       8     126     152    1012    0.00
    05/26/2015 15:40      47    51.5      9.01        72.6      73.8      57.8       4       9     128     145    1012    0.00
    05/26/2015 15:50      47    51.5      9.01        72.9      73.8      57.8       5       9     130     129    1012    0.00
    05/26/2015 16:00      49    51.4      9.01        72.5      73.8      57.8       4       8     126      97    1012    0.00
    05/26/2015 16:10      49    51.3      9.01        71.8      73.8      57.8       4       9     130     144    1012    0.00
    05/26/2015 16:20      49    51.3      9.01        71.1      73.8      57.8       4       7     122     108    1012    0.00
    05/26/2015 16:30      50    51.3      9.01        71.1      73.8      57.8       4       8     120      87    1012    0.00
    05/26/2015 16:40      50    51.3      9.01        70.8      73.8      57.8       3       7     122     127    1013    0.00
    05/26/2015 16:50      51    51.5      9.01        70.6      73.8      57.8       4       6     150     160    1013    0.00
    05/26/2015 17:00      53    51.5      9.01        70.3      73.8      57.8       4       8     148     147    1013    0.00
    05/26/2015 17:10      52    51.1      9.01        70.0      73.8      57.8       3       7     111     144    1013    0.00
    05/26/2015 17:20      52    51.3      9.01        69.4      73.8      57.8       3       6     121      98    1013    0.00
    05/26/2015 17:30      53    51.1      9.01        69.3      73.8      57.8       4       7     108     158    1013    0.00
    05/26/2015 17:40      53    51.1      9.01        68.7      73.8      57.8       2       6     106     151    1013    0.00
    05/26/2015 17:50      55    51.0      9.01        68.0      73.8      57.8       3       6      99      41    1013    0.00
    05/26/2015 18:00      56    51.1      9.01        67.5      73.8      57.8       2       5     114     105    1013    0.00
    05/26/2015 18:10      58    51.1      9.01        67.0      73.8      57.8       3       7      99      96    1013    0.00
    05/26/2015 18:20      58    51.2      9.01        66.4      73.8      57.8       2       5     140     147    1013    0.00
    05/26/2015 18:30      60    51.1      9.01        65.7      73.8      57.8       2       5     139     130    1013    0.00
    05/26/2015 18:40      61    51.0      9.01        65.0      73.8      57.8       3       6      95      92    1013    0.00
    05/26/2015 18:50      62    51.0      9.01        64.4      73.8      57.8       2       5      74      83    1013    0.00
    05/26/2015 19:00      64    50.9      9.01        63.7      73.8      57.8       1       5      94      77    1013    0.00
    05/26/2015 19:10      65    50.9      9.01        63.1      73.8      57.8       3       6      94      68    1013    0.00
    05/26/2015 19:20      66    50.9      9.01        62.6      73.8      57.8       3       6      92      85    1013    0.00
    05/26/2015 19:30      67    50.9      9.01        62.2      73.8      57.8       3       5      81     100    1013    0.00
    05/26/2015 19:40      67    50.9      9.01        62.0      73.8      57.8       3       5      83      68    1013    0.00
    05/26/2015 19:50      68    50.8      9.01        61.6      73.8      57.8       4       6      77      77    1013    0.00
    05/26/2015 20:00      69    50.8      9.01        61.2      73.8      57.8       3       6      81      63    1014    0.00
    05/26/2015 20:10      70    50.8      9.01        61.0      73.8      57.8       3       6      82      78    1014    0.00
    05/26/2015 20:20      70    50.8      9.01        60.7      73.8      57.8       3       5      78      47    1014    0.00
    05/26/2015 20:30      71    50.9      9.01        60.5      73.8      57.8       2       4      84      69    1014    0.00
    05/26/2015 20:40      72    50.9      9.01        60.2      73.8      57.8       3       5      76      73    1014    0.00
    05/26/2015 20:50      72    50.9      9.01        59.9      73.8      57.8       3       6      82      70    1014    0.00
    05/26/2015 21:00      73    50.9      9.01        59.6      73.8      57.8       3       6      84      90    1014    0.00
    05/26/2015 21:10      73    50.9      9.01        59.3      73.8      57.8       3       5      81     102    1014    0.00
    05/26/2015 21:20      74    50.9      9.01        59.2      73.8      57.8       3       4      78     100    1014    0.00
    05/26/2015 21:30      74    50.8      9.01        59.0      73.8      57.8       2       5      70      54    1014    0.00
    05/26/2015 21:40      75    50.8      9.01        58.9      73.8      57.8       3       5      69      72    1014    0.00
    05/26/2015 21:50      75    50.8      9.01        58.7      73.8      57.8       3       7      75      71    1014    0.00
    05/26/2015 22:00      75    50.7      9.01        58.4      73.8      57.8       4       6      75      82    1014    0.00
    05/26/2015 22:10      76    50.6      9.01        58.1      73.8      57.8       2       5      89      74    1014    0.00
    05/26/2015 22:20      76    50.4      9.01        57.8      73.8      57.5       2       5     101      89    1014    0.00
    05/26/2015 22:30      77    50.2      9.01        57.4      73.8      57.1       2       5      96     118    1014    0.00
    05/26/2015 22:40      78    50.1      9.01        57.1      73.8      56.9       3       5      69      42    1014    0.00
    05/26/2015 22:50      78    50.1      9.01        56.9      73.8      56.7       2       4      57      56    1014    0.00
    05/26/2015 23:00      79    50.1      9.01        56.7      73.8      56.6       3       5      68      50    1014    0.00
    05/26/2015 23:10      79    50.1      9.01        56.6      73.8      56.3       2       5      78      84    1014    0.00
    05/26/2015 23:20      80    50.1      9.01        56.4      73.8      56.2       3       5      80      64    1014    0.00
    05/26/2015 23:30      81    50.3      9.01        56.3      73.8      56.0       2       4      72      83    1014    0.00
    05/26/2015 23:40      81    50.4      9.01        56.2      73.8      56.0       2       4      71      81    1014    0.00
    05/26/2015 23:50      82    50.5      9.01        56.1      73.8      56.0       2       4     103      95    1014    0.00
    05/27/2015 00:00      82    50.7      9.01        56.2      73.8      56.0       2       4      95      86    1014    0.00
    05/27/2015 00:10      82    50.8      9.01        56.3      56.5      56.0       2       5     106      89    1014    0.00
    05/27/2015 00:20      82    50.8      9.01        56.3      56.5      56.0       3       5      85      65    1014    0.00
    05/27/2015 00:30      82    50.8      9.01        56.2      56.5      56.0       3       7      79      89    1014    0.00
    05/27/2015 00:40      82    50.8      9.01        56.1      56.5      56.0       4       7      82      89    1014    0.00
    05/27/2015 00:50      82    51.0      9.01        56.3      56.5      56.0       2       4      88      96    1014    0.00
    05/27/2015 01:00      82    51.1      9.01        56.5      56.7      56.0       2       4     123      91    1014    0.00
    05/27/2015 01:10      82    51.0      9.01        56.3      56.7      56.0       2       5     129     145    1014    0.00
    05/27/2015 01:20      82    51.0      9.01        56.3      56.7      56.0       2       6     121      91    1014    0.00
    05/27/2015 01:30      82    51.0      9.01        56.3      56.7      56.0       2       5     145     152    1014    0.00
    05/27/2015 01:40      83    51.1      9.01        56.3      56.7      56.0       2       4     157     154    1014    0.00
    05/27/2015 01:50      83    51.0      9.01        56.2      56.7      56.0       2       4     153     154    1014    0.00
    05/27/2015 02:00      83    51.0      9.01        56.2      56.7      56.0       2       4     141     151    1014    0.00
    05/27/2015 02:10      83    51.0      9.01        56.3      56.7      56.0       2       4     146     143    1014    0.00
    05/27/2015 02:20      83    51.0      9.01        56.2      56.7      56.0       2       4     156     143    1014    0.00
    05/27/2015 02:30      82    51.0      9.01        56.3      56.7      56.0       2       3     161      99    1014    0.00
    05/27/2015 02:40      83    50.9      9.01        56.2      56.7      56.0       2       4     170     160    1014    0.00
    05/27/2015 02:50      83    51.0      9.01        56.2      56.7      56.0       3       5     161     156    1014    0.00
    05/27/2015 03:00      83    50.9      9.01        56.1      56.7      55.8       2       4     139      89    1014    0.00
    05/27/2015 03:10      82    51.0      9.01        56.3      56.7      55.8       2       3     121     147    1014    0.00
    05/27/2015 03:20      82    51.0      9.01        56.3      56.7      55.8       1       3     121     122    1014    0.00
    05/27/2015 03:30      82    50.9      9.01        56.3      56.7      55.8       1       3     153     144    1014    0.00
    05/27/2015 03:40      82    51.0      9.01        56.2      56.7      55.8       1       3     153     134    1014    0.00
    05/27/2015 03:50      82    50.9      9.01        56.2      56.7      55.8       0       2     150     144    1014    0.00
    05/27/2015 04:00      81    50.8      9.01        56.3      56.7      55.8       1       4      73      53    1014    0.00
    05/27/2015 04:10      81    50.9      9.01        56.5      56.7      55.8       2       4     130     105    1014    0.00
    05/27/2015 04:20      81    50.8      9.01        56.6      56.8      55.8       1       3      98      77    1014    0.00
    05/27/2015 04:30      81    50.7      9.01        56.6      56.8      55.8       1       4     113      73    1014    0.00
    05/27/2015 04:40      81    50.7      9.01        56.6      56.8      55.8       2       4      76      18    1014    0.00
    05/27/2015 04:50      81    50.8      9.01        56.6      56.9      55.8       2       5     108     141    1014    0.00
    05/27/2015 05:00      81    50.7      9.01        56.6      56.9      55.8       2       4     125     145    1014    0.00
    05/27/2015 05:10      81    50.8      9.01        56.6      56.9      55.8       3       4     149     162    1014    0.00
    05/27/2015 05:20      81    50.8      9.01        56.7      56.9      55.8       1       3     137     152    1014    0.00
    05/27/2015 05:30      80    50.8      9.01        56.8      57.0      55.8       2       3     138     154    1014    0.00
    05/27/2015 05:40      81    50.8      9.01        56.8      57.0      55.8       3       4     148     137    1014    0.00
    05/27/2015 05:50      80    50.8      9.01        56.7      57.0      55.8       3       6     152     142    1014    0.00
    05/27/2015 06:00      80    50.8      9.01        56.7      57.0      55.8       3       5     154     169    1014    0.00
    05/27/2015 06:10      81    50.9      9.01        56.8      57.0      55.8       3       5     159     160    1014    0.00
    05/27/2015 06:20      81    50.9      9.01        56.6      57.0      55.8       3       6     168     166    1014    0.00
    05/27/2015 06:30      80    50.9      9.01        56.8      57.0      55.8       2       5     143     134    1014    0.00
    05/27/2015 06:40      79    50.8      9.01        56.9      57.2      55.8       1       3     125     138    1014    0.00
    05/27/2015 06:50      79    50.8      9.01        57.2      57.5      55.8       1       3     130     142    1015    0.00
    05/27/2015 07:00      79    50.7      9.01        57.3      57.5      55.8       2       4     142     168    1015    0.00
    05/27/2015 07:10      79    50.7      9.01        57.2      57.5      55.8       1       5     152     147    1015    0.00
    05/27/2015 07:20      78    50.7      9.01        57.3      57.5      55.8       2       5     145     150    1015    0.00
    05/27/2015 07:30      78    50.9      9.01        57.5      57.7      55.8       3       4     164     163    1015    0.00
    05/27/2015 07:40      78    50.8      9.01        57.6      57.8      55.8       1       3     146     150    1015    0.00
    05/27/2015 07:50      78    50.9      9.01        57.7      58.0      55.8       3       4     177     205    1015    0.00
    05/27/2015 08:00      77    50.9      9.01        58.0      58.3      55.8       0       2     197     184    1015    0.00
    05/27/2015 08:10      76    50.9      9.01        58.3      58.6      55.8       1       3     201     194    1015    0.00
    05/27/2015 08:20      76    50.8      9.01        58.2      58.6      55.8       2       4     145     157    1015    0.00
    05/27/2015 08:30      74    51.0      9.01        58.8      59.1      55.8       1       3     152     148    1015    0.00
    05/27/2015 08:40      74    50.8      9.01        59.1      59.3      55.8       0       3     222     180    1015    0.00
    05/27/2015 08:50      73    50.9      9.01        59.3      59.7      55.8       1       4     224     222    1014    0.00
    05/27/2015 09:00      73    51.0      9.01        59.5      60.0      55.8       3       4     183     182    1014    0.00
    05/27/2015 09:10      71    50.8      9.01        59.8      60.1      55.8       2       4     194     192    1014    0.00
    05/27/2015 09:20      71    50.9      9.01        60.2      60.8      55.8       2       6     254     168    1014    0.00
    05/27/2015 09:30      70    50.8      9.01        60.5      61.0      55.8       2       5     189     212    1014    0.00
    05/27/2015 09:40      69    50.8      9.01        60.6      61.1      55.8       2       5     308     291    1014    0.00
    05/27/2015 09:50      68    51.0      9.01        61.2      61.9      55.8       3       6     188     130    1015    0.00
    05/27/2015 10:00      69    51.0      9.01        61.3      61.9      55.8       4       7     183     140    1015    0.00
    05/27/2015 10:10      68    51.5      9.01        61.8      62.5      55.8       4       9     197     199    1015    0.00
    05/27/2015 10:20      66    51.1      9.01        62.1      62.8      55.8       3       6     146     136    1015    0.00
    05/27/2015 10:30      64    51.2      9.01        63.1      63.6      55.8       3       6     150     165    1015    0.00
    05/27/2015 10:40      64    51.2      9.01        63.7      64.3      55.8       3       7     150     160    1015    0.00
    05/27/2015 10:50      62    51.0      9.01        64.0      64.5      55.8       3       6      65      90    1014    0.00
    05/27/2015 11:00      58    51.2      9.01        64.8      66.2      55.8       3       6     105      39    1014    0.00
    05/27/2015 11:10      60    51.1      9.01        65.8      66.6      55.8       3       6     172     124    1014    0.00
    05/27/2015 11:20      57    50.8      9.01        66.0      66.6      55.8       2       6     113     117    1014    0.00
    05/27/2015 11:30      56    50.9      9.01        66.7      67.6      55.8       1       6     145     160    1014    0.00
    05/27/2015 11:40      54    51.0      9.01        67.5      67.9      55.8       3       7     153     148    1014    0.00
    05/27/2015 11:50      53    51.2      9.01        68.3      68.9      55.8       3       7     155     177    1014    0.00
    05/27/2015 12:00      53    50.6      9.01        68.8      69.3      55.8       2       6     105     124    1014    0.00
    05/27/2015 12:10      51    50.9      9.01        69.6      70.2      55.8       4       7     131     186    1014    0.00
    05/27/2015 12:20      49    50.8      9.01        70.5      71.4      55.8       2       5     229     251    1014    0.00
    05/27/2015 12:30      47    50.4      9.01        71.2      71.5      55.8       3       5     100     158    1014    0.00
    05/27/2015 12:40      44    49.9      9.01        71.7      72.9      55.8       1       4     311     116    1013    0.00
    05/27/2015 12:50      44    49.8      9.01        72.7      73.1      55.8       3       6     103      81    1013    0.00
    05/27/2015 13:00      43    49.8      9.01        72.7      73.3      55.8       2       7     256     194    1013    0.00
    05/27/2015 13:10      44    50.0      9.01        73.8      74.7      55.8       2       5     240     213    1013    0.00
    05/27/2015 13:20      41    49.6      9.01        74.9      75.3      55.8       3       7     232     240    1013    0.00
    05/27/2015 13:30      40    49.1      9.01        74.4      75.3      55.8       2       5     296     335    1013    0.00
    05/27/2015 13:40      39    48.6      9.01        75.2      76.2      55.8       2       5     334     339    1013    0.00
    05/27/2015 13:50      36    48.3      9.01        76.1      77.2      55.8       0       3     333      93    1013    0.00
    05/27/2015 14:00      40    48.9      9.01        77.0      77.7      55.8       3       8     123     164    1013    0.00
    05/27/2015 14:10      41    51.0      9.01        76.3      77.7      55.8       5      10     148     182    1013    0.00
    05/27/2015 14:20      39    50.5      9.01        76.4      77.7      55.8       4      10     138     138    1013    0.00
    05/27/2015 14:30      42    50.3      9.01        76.0      77.7      55.8       3       7     128     147    1013    0.00
    05/27/2015 14:40      39    50.4      9.01        76.8      77.7      55.8       5       9     141     167    1012    0.00
    05/27/2015 14:50      39    50.0      9.01        76.9      77.7      55.8       5      10     114     151    1012    0.00
    05/27/2015 15:00      41    51.0      9.01        76.9      77.7      55.8       6      10     140     145    1012    0.00
    05/27/2015 15:10      41    51.0      9.01        76.6      77.7      55.8       7      12     146     154    1012    0.00
    05/27/2015 15:20      43    50.8      9.01        76.2      77.7      55.8       6      11     133     149    1012    0.00
    05/27/2015 15:30      41    51.1      9.01        75.8      77.7      55.8       5      11     130     158    1012    0.00
    05/27/2015 15:40      44    51.2      9.01        75.0      77.7      55.8       6      11     137     163    1012    0.00
    05/27/2015 15:50      44    51.1      9.01        74.8      77.7      55.8       5       9     130      68    1012    0.00
    05/27/2015 16:00      42    51.1      9.01        75.0      77.7      55.8       4      10     122     127    1012    0.00
    05/27/2015 16:10      43    50.9      9.01        74.5      77.7      55.8       4       8     113      92    1012    0.00
    05/27/2015 16:20      44    50.6      9.01        74.5      77.7      55.8       4      10      95     104    1012    0.00
    05/27/2015 16:30      45    50.7      9.01        73.9      77.7      55.8       4       9     117     101    1012    0.00
    05/27/2015 16:40      44    50.9      9.01        73.9      77.7      55.8       4       9     123     158    1012    0.00
    05/27/2015 16:50      45    50.6      9.01        73.2      77.7      55.8       4       8      99     109    1012    0.00
    05/27/2015 17:00      46    50.9      9.01        72.9      77.7      55.8       4       9     121     110    1012    0.00
    05/27/2015 17:10      47    50.7      9.01        72.7      77.7      55.8       4       9     105     115    1012    0.00
    05/27/2015 17:20      47    50.8      9.01        72.0      77.7      55.8       4       8     106      90    1012    0.00
    05/27/2015 17:30      49    50.9      9.01        71.5      77.7      55.8       3       7     117      94    1012    0.00
    05/27/2015 17:40      51    51.0      9.01        70.8      77.7      55.8       4       8     102      91    1012    0.00
    05/27/2015 17:50      51    51.0      9.01        70.5      77.7      55.8       4       8     104     105    1012    0.00
    05/27/2015 18:00      52    51.0      9.01        69.6      77.7      55.8       3       9     105     100    1012    0.00
    05/27/2015 18:10      54    51.0      9.01        68.7      77.7      55.8       4       8     101      90    1012    0.00
    05/27/2015 18:20      55    51.0      9.01        68.0      77.7      55.8       4       8     100     110    1013    0.00
    05/27/2015 18:30      56    51.1      9.01        67.5      77.7      55.8       2       5      98      72    1013    0.00
    05/27/2015 18:40      57    51.0      9.01        67.0      77.7      55.8       3       5      71      80    1013    0.00
    05/27/2015 18:50      58    51.0      9.01        66.3      77.7      55.8       4       7      73      69    1013    0.00
    05/27/2015 19:00      59    51.1      9.01        66.0      77.7      55.8       4       7      75      73    1013    0.00
    05/27/2015 19:10      60    51.0      9.01        65.3      77.7      55.8       4       6      67      90    1013    0.00
    05/27/2015 19:20      61    51.0      9.01        64.9      77.7      55.8       3       5      77      75    1013    0.00
    05/27/2015 19:30      62    51.0      9.01        64.5      77.7      55.8       2       5      62      61    1013    0.00
    05/27/2015 19:40      63    51.0      9.01        64.0      77.7      55.8       4       7      54      46    1013    0.00
    05/27/2015 19:50      64    50.9      9.01        63.5      77.7      55.8       4       7      74      69    1013    0.00
    05/27/2015 20:00      65    50.9      9.01        63.0      77.7      55.8       3       6      67      55    1013    0.00
    05/27/2015 20:10      66    50.9      9.01        62.6      77.7      55.8       4       7      70      67    1013    0.00
    05/27/2015 20:20      67    51.0      9.01        62.3      77.7      55.8       3       5      69      73    1013    0.00
    05/27/2015 20:30      68    51.0      9.01        62.0      77.7      55.8       3       6      67      61    1014    0.00
    05/27/2015 20:40      68    51.1      9.01        61.6      77.7      55.8       3       5      71      68    1014    0.00
    05/27/2015 20:50      69    51.1      9.01        61.5      77.7      55.8       2       5      70      69    1014    0.00
    05/27/2015 21:00      69    51.1      9.01        61.3      77.7      55.8       2       4      77      79    1014    0.00
    05/27/2015 21:10      70    51.1      9.01        61.2      77.7      55.8       2       3      73      56    1014    0.00
    05/27/2015 21:20      70    51.1      9.01        61.0      77.7      55.8       2       4      73      72    1014    0.00
    05/27/2015 21:30      70    51.1      9.01        60.9      77.7      55.8       0       2      93      99    1014    0.00
    05/27/2015 21:40      72    51.0      9.01        60.3      77.7      55.8       2       2     152     166    1014    0.00
    05/27/2015 21:50      73    51.1      9.01        60.0      77.7      55.8       2       2     154     153    1014    0.00
    05/27/2015 22:00      73    51.0      9.01        59.7      77.7      55.8       0       2     155     163    1014    0.00
    05/27/2015 22:10      73    51.0      9.01        59.6      77.7      55.8       0       2      76      46    1014    0.00
    05/27/2015 22:20      72    51.1      9.01        60.0      77.7      55.8       1       2      78      99    1014    0.00
    05/27/2015 22:30      73    51.1      9.01        60.0      77.7      55.8       1       2      78      91    1014    0.00
    05/27/2015 22:40      73    51.2      9.01        59.8      77.7      55.8       2       3      69      85    1014    0.00
    05/27/2015 22:50      74    51.1      9.01        59.7      77.7      55.8       2       4      72      65    1014    0.00
    05/27/2015 23:00      74    51.1      9.01        59.4      77.7      55.8       2       4      64      64    1014    0.00
    05/27/2015 23:10      74    51.1      9.01        59.3      77.7      55.8       2       3      58      46    1014    0.00
    05/27/2015 23:20      74    51.0      9.01        59.1      77.7      55.8       3       6      68      81    1014    0.00
    05/27/2015 23:30      75    50.9      9.01        58.9      77.7      55.8       2       4      73      73    1014    0.00
    05/27/2015 23:40      75    50.9      9.01        58.7      77.7      55.8       2       4      64      39    1014    0.00
    05/27/2015 23:50      75    50.9      9.01        58.6      77.7      55.8       2       4      70      67    1014    0.00
    05/28/2015 00:00      76    50.8      9.01        58.4      77.7      55.8       1       3      79      58    1014    0.00
    05/28/2015 00:10      76    50.8      9.01        58.3      58.5      58.1       1       3      70      68    1014    0.00
    05/28/2015 00:20      76    50.8      9.01        58.2      58.5      58.0       1       3      73      80    1014    0.00
    05/28/2015 00:30      77    50.7      9.01        58.0      58.5      57.8       1       2      74      30    1014    0.00
    05/28/2015 00:40      78    50.5      9.01        57.6      58.5      57.2       0       2     148      88    1013    0.00
    05/28/2015 00:50      79    50.4      9.01        57.0      58.5      56.7       0       0     184     184    1014    0.00
    05/28/2015 01:00      80    50.5      9.01        56.7      58.5      56.4       0       0       0     226    1013    0.00
    05/28/2015 01:10      81    50.7      9.01        56.5      58.5      56.4       0       0       0     271    1013    0.00
    05/28/2015 01:20      81    50.6      9.01        56.4      58.5      56.1       0       0       0     329    1013    0.00
    05/28/2015 01:30      82    50.5      9.01        56.2      58.5      56.0       0       0      28      29    1013    0.00
    05/28/2015 01:40      82    50.5      9.01        56.0      58.5      55.8       0       0       0      27    1013    0.00
    05/28/2015 01:50      82    50.3      9.01        55.8      58.5      55.5       0       0       0      26    1013    0.00
    05/28/2015 02:00      83    50.4      9.01        55.6      58.5      55.4       0       0       0      26    1013    0.00
    05/28/2015 02:10      83    50.3      9.01        55.4      58.5      55.2       0       0       0      25    1013    0.00
    05/28/2015 02:20      83    50.3      9.01        55.2      58.5      55.0       0       0     121     122    1013    0.00
    05/28/2015 02:30      84    50.1      9.01        55.0      58.5      54.7       0       0       0     138    1013    0.00
    05/28/2015 02:40      84    50.0      9.01        54.8      58.5      54.6       0       0       0      98    1013    0.00
    05/28/2015 02:50      84    50.1      9.01        54.8      58.5      54.5       0       0       0     121    1013    0.00
    05/28/2015 03:00      85    50.1      9.01        54.7      58.5      54.5       0       0     132     133    1013    0.00
    05/28/2015 03:10      85    50.2      9.01        54.6      58.5      54.4       0       1     156     164    1013    0.00
    05/28/2015 03:20      85    50.1      9.01        54.5      58.5      54.3       0       0       0     156    1013    0.00
    05/28/2015 03:30      85    49.9      9.01        54.3      58.5      54.1       0       0     246     244    1013    0.00
    05/28/2015 03:40      85    49.7      9.01        54.0      58.5      53.8       0       0     300     299    1013    0.00
    05/28/2015 03:50      86    49.8      9.01        54.0      58.5      53.7       0       0       0     296    1013    0.00
    05/28/2015 04:00      86    49.8      9.01        53.9      58.5      53.7       0       0     335     344    1013    0.00
    05/28/2015 04:10      86    50.1      9.01        54.1      58.5      53.7       0       1      50      61    1013    0.00
    05/28/2015 04:20      85    50.3      9.01        54.5      58.5      53.7       0       2      45      52    1013    0.00
    05/28/2015 04:30      85    49.7      9.01        54.2      58.5      53.7       0       2      48      34    1013    0.00
    05/28/2015 04:40      85    50.0      9.01        54.3      58.5      53.7       2       4      52      59    1013    0.00
    05/28/2015 04:50      84    49.9      9.01        54.4      58.5      53.7       2       3      44      30    1013    0.00
    05/28/2015 05:00      84    49.7      9.01        54.4      58.5      53.7       1       3      38      49    1013    0.00
    05/28/2015 05:10      84    49.5      9.01        54.2      58.5      53.7       0       2      45      43    1013    0.00
    05/28/2015 05:20      84    49.5      9.01        54.2      58.5      53.7       0       1      61      69    1014    0.00
    05/28/2015 05:30      84    49.6      9.01        54.3      58.5      53.7       0       2      58      69    1014    0.00
    05/28/2015 05:40      83    50.0      9.01        54.9      58.5      53.7       0       2      58      75    1014    0.00
    05/28/2015 05:50      83    50.2      9.01        55.3      58.5      53.7       1       2      81      81    1014    0.00
    05/28/2015 06:00      78    50.7      9.01        56.4      58.5      53.7       0       2      58      44    1014    0.00
    05/28/2015 06:10      76    50.7      9.01        57.5      58.5      53.7       0       2     176     149    1014    0.00
    05/28/2015 06:20      76    50.3      9.01        57.9      58.5      53.7       0       3     101      78    1014    0.00
    05/28/2015 06:30      73    50.5      9.01        58.6      59.1      53.7       1       4      87      69    1014    0.00
    05/28/2015 06:40      72    50.4      9.01        59.1      59.4      53.7       2       4      99     104    1014    0.00
    05/28/2015 06:50      72    50.5      9.01        59.2      59.7      53.7       2       4      97      99    1014    0.00
    05/28/2015 07:00      71    50.8      9.01        59.8      60.3      53.7       2       5     116     157    1014    0.00
    05/28/2015 07:10      71    50.9      9.01        60.2      60.5      53.7       3       6     119     111    1014    0.00
    05/28/2015 07:20      72    51.0      9.01        60.1      60.6      53.7       3       5     119     132    1014    0.00
    05/28/2015 07:30      72    51.0      9.01        59.8      60.6      53.7       4       6      85      79    1014    0.00
    05/28/2015 07:40      73    51.2      9.01        59.7      60.6      53.7       3       6     110     105    1014    0.00
    05/28/2015 07:50      73    51.5      9.01        59.8      60.6      53.7       3       5     123     153    1014    0.00
    05/28/2015 08:00      73    51.4      9.01        60.3      60.9      53.7       2       5     111     125    1015    0.00
    05/28/2015 08:10      71    51.9      9.01        60.9      61.4      53.7       3       6     151     149    1015    0.00
    05/28/2015 08:20      70    51.9      9.01        61.4      62.3      53.7       2       5     111      82    1015    0.00
    05/28/2015 08:30      66    51.7      9.01        62.7      63.2      53.7       2       5      91      74    1014    0.00
    05/28/2015 08:40      66    51.8      9.01        63.2      63.6      53.7       3       5     158      95    1014    0.00
    05/28/2015 08:50      63    51.6      9.01        63.8      64.5      53.7       2       5     102     110    1014    0.00
    05/28/2015 09:00      61    51.6      9.01        64.9      65.5      53.7       2       4     118     104    1014    0.00
    05/28/2015 09:10      61    51.7      9.01        65.4      65.7      53.7       3       6     170     173    1014    0.00
    05/28/2015 09:20      57    51.6      9.01        66.3      67.3      53.7       2       5     117      66    1014    0.00
    05/28/2015 09:30      57    51.5      9.01        67.1      67.8      53.7       2       6     135     164    1014    0.00
    05/28/2015 09:40      53    51.5      9.01        68.2      69.1      53.7       2       6     139     166    1014    0.00
    05/28/2015 09:50      53    51.2      9.01        68.2      69.1      53.7       3       7     134      68    1014    0.00
    05/28/2015 10:00      53    51.1      9.01        68.9      69.5      53.7       3       6     135     146    1014    0.00
    05/28/2015 10:10      52    51.6      9.01        69.4      70.1      53.7       3       7     160     141    1014    0.00
    05/28/2015 10:20      51    51.3      9.01        70.5      71.0      53.7       3       6     182     120    1014    0.00
    05/28/2015 10:30      49    51.0      9.01        70.5      71.3      53.7       3       7      88     178    1014    0.00
    05/28/2015 10:40      49    51.1      9.01        71.7      72.6      53.7       3       8      99     155    1014    0.00
    05/28/2015 10:50      47    51.4      9.01        72.1      72.8      53.7       4       8     181     196    1014    0.00
    05/28/2015 11:00      49    51.3      9.01        72.6      73.1      53.7       4       7     111     135    1014    0.00
    05/28/2015 11:10      46    51.7      9.01        73.5      74.1      53.7       3       7     134     121    1014    0.00
    05/28/2015 11:20      45    51.8      9.01        73.9      74.4      53.7       4      10     153     143    1014    0.00
    05/28/2015 11:30      43    51.8      9.01        74.8      75.2      53.7       4       8     128      79    1014    0.00
    05/28/2015 11:40      43    51.5      9.01        75.1      75.7      53.7       4       9     126     176    1014    0.00
    05/28/2015 11:50      41    51.4      9.01        76.2      76.6      53.7       3       8     118     141    1013    0.00
    05/28/2015 12:00      43    51.2      9.01        76.4      76.9      53.7       4      10     135     152    1013    0.00
    05/28/2015 12:10      40    51.5      9.01        77.2      77.7      53.7       4       9     144     142    1013    0.00
    05/28/2015 12:20      38    51.1      9.01        77.1      77.7      53.7       4       9     132     126    1013    0.00
    05/28/2015 12:30      41    51.1      9.01        78.0      79.0      53.7       4       8     136     146    1013    0.00
    05/28/2015 12:40      36    50.4      9.01        78.2      79.0      53.7       4       8     152     124    1013    0.00
    05/28/2015 12:50      38    49.5      9.01        78.1      79.0      53.7       5      10      85      62    1013    0.00
    05/28/2015 13:00      35    50.0      9.01        79.0      79.4      53.7       3       8     148     164    1013    0.00
    05/28/2015 13:10      36    50.0      9.01        79.6      79.9      53.7       5      10     129      85    1013    0.00
    05/28/2015 13:20      36    50.2      9.01        79.6      80.2      53.7       4       8     113     128    1012    0.00
    05/28/2015 13:30      35    50.0      9.01        79.9      80.6      53.7       3       7      88      83    1012    0.00
    05/28/2015 13:40      35    50.1      9.01        80.1      80.6      53.7       4       8     141      88    1012    0.00
    05/28/2015 13:50      34    50.2      9.01        80.0      81.2      53.7       5       9      72      96    1012    0.00
    05/28/2015 14:00      36    50.2      9.01        81.2      81.7      53.7       3       7     110      60    1012    0.00
    05/28/2015 14:10      34    50.8      9.01        81.4      81.9      53.7       4       9     123     143    1012    0.00
    05/28/2015 14:20      34    50.3      9.01        81.6      82.4      53.7       5       9     102      79    1012    0.00
    05/28/2015 14:30      34    50.8      9.01        81.4      82.4      53.7       4       9     144     171    1012    0.00
    05/28/2015 14:40      34    50.6      9.01        82.1      82.5      53.7       4       9     116      96    1012    0.00
    05/28/2015 14:50      33    50.9      9.01        82.7      83.1      53.7       4       8     124     130    1011    0.00
    05/28/2015 15:00      33    50.3      9.01        81.7      83.1      53.7       4       9     128     145    1011    0.00
    05/28/2015 15:10      34    50.2      9.01        81.5      83.1      53.7       4       9     130     125    1011    0.00
    05/28/2015 15:20      34    50.4      9.01        81.7      83.1      53.7       4       9     145     154    1011    0.00
    05/28/2015 15:30      33    49.5      9.01        81.4      83.1      53.7       4       8      89      83    1011    0.00
    05/28/2015 15:40      35    49.9      9.01        81.4      83.1      53.7       4       8     100      98    1011    0.00
    05/28/2015 15:50      33    50.3      9.01        81.9      83.1      53.7       3       8     110      91    1011    0.00
    05/28/2015 16:00      34    50.3      9.01        81.9      83.1      53.7       3       7     106      88    1011    0.00
    05/28/2015 16:10      33    50.4      9.01        81.9      83.1      53.7       3       8     120     139    1011    0.00
    05/28/2015 16:20      33    50.3      9.01        81.8      83.1      53.7       3       7     116     172    1011    0.00
    05/28/2015 16:30      33    50.4      9.01        82.0      83.1      53.7       3       7     125     142    1011    0.00
    05/28/2015 16:40      34    50.2      9.01        81.4      83.1      53.7       4       8     133     160    1011    0.00
    05/28/2015 16:50      34    50.1      9.01        80.9      83.1      53.7       4       9     126      80    1011    0.00
    05/28/2015 17:00      35    50.0      9.01        80.2      83.1      53.7       4       9     106      75    1011    0.00
    05/28/2015 17:10      35    49.8      9.01        79.7      83.1      53.7       4       8     120     145    1011    0.00
    05/28/2015 17:20      36    49.9      9.01        79.5      83.1      53.7       3       7     109      83    1011    0.00
    05/28/2015 17:30      38    49.9      9.01        78.7      83.1      53.7       4       9     120     142    1011    0.00
    05/28/2015 17:40      38    50.0      9.01        77.9      83.1      53.7       3       7     113     131    1011    0.00
    05/28/2015 17:50      39    50.1      9.01        77.3      83.1      53.7       4       8     108      91    1011    0.00
    05/28/2015 18:00      40    50.5      9.01        76.7      83.1      53.7       4       8      94      74    1011    0.00
    05/28/2015 18:10      42    50.6      9.01        76.3      83.1      53.7       4       8      80      85    1011    0.00
    05/28/2015 18:20      41    50.8      9.01        75.7      83.1      53.7       3       7     103      87    1011    0.00
    05/28/2015 18:30      43    50.6      9.01        74.7      83.1      53.7       3       8     105      91    1011    0.00
    05/28/2015 18:40      45    51.0      9.01        74.1      83.1      53.7       3       6     105      91    1011    0.00
    05/28/2015 18:50      47    51.3      9.01        73.5      83.1      53.7       2       5     105      81    1011    0.00
    05/28/2015 19:00      48    51.5      9.01        72.8      83.1      53.7       3       5      90      77    1012    0.00
    05/28/2015 19:10      49    51.5      9.01        71.9      83.1      53.7       4       7      83      83    1012    0.00
    05/28/2015 19:20      51    51.7      9.01        71.3      83.1      53.7       3       7      88      65    1012    0.00
    05/28/2015 19:30      53    52.1      9.01        70.5      83.1      53.7       2       4      97      91    1012    0.00
    05/28/2015 19:40      54    52.3      9.01        69.9      83.1      53.7       2       5      98      89    1012    0.00
    05/28/2015 19:50      56    52.5      9.01        69.3      83.1      53.7       2       5      96      99    1012    0.00
    05/28/2015 20:00      57    52.7      9.01        68.8      83.1      53.7       1       3      96      87    1012    0.00
    05/28/2015 20:10      58    52.9      9.01        68.5      83.1      53.7       3       5      91      95    1012    0.00
    05/28/2015 20:20      58    52.9      9.01        68.1      83.1      53.7       3       5      76      91    1012    0.00
    05/28/2015 20:30      59    52.7      9.01        67.6      83.1      53.7       2       5      70      64    1013    0.00
    05/28/2015 20:40      61    52.8      9.01        67.1      83.1      53.7       3       5      71      59    1013    0.00
    05/28/2015 20:50      62    52.9      9.01        66.6      83.1      53.7       2       4      69      61    1013    0.00
    05/28/2015 21:00      63    53.0      9.01        66.2      83.1      53.7       2       4      85      91    1013    0.00
    05/28/2015 21:10      64    53.0      9.01        65.8      83.1      53.7       2       4      76      76    1013    0.00
    05/28/2015 21:20      65    53.0      9.01        65.3      83.1      53.7       2       4      76      73    1013    0.00
    05/28/2015 21:30      66    53.0      9.01        64.9      83.1      53.7       2       5      61      34    1013    0.00
    05/28/2015 21:40      66    53.0      9.01        64.6      83.1      53.7       3       5      67      63    1013    0.00
    05/28/2015 21:50      67    53.1      9.01        64.3      83.1      53.7       3       5      69      66    1013    0.00
    05/28/2015 22:00      68    53.1      9.01        63.9      83.1      53.7       2       4      69      65    1013    0.00
    05/28/2015 22:10      69    53.0      9.01        63.5      83.1      53.7       2       4      64      95    1013    0.00
    05/28/2015 22:20      69    53.0      9.01        63.2      83.1      53.7       2       4      68      47    1013    0.00
    05/28/2015 22:30      70    52.9      9.01        63.0      83.1      53.7       1       3      60      41    1013    0.00
    05/28/2015 22:40      70    52.9      9.01        62.9      83.1      53.7       2       4      66      59    1013    0.00
    05/28/2015 22:50      70    52.8      9.01        62.7      83.1      53.7       2       4      75      90    1013    0.00
    05/28/2015 23:00      71    52.8      9.01        62.5      83.1      53.7       2       3      74      83    1013    0.00
    05/28/2015 23:10      71    52.7      9.01        62.3      83.1      53.7       2       3      76      78    1013    0.00
    05/28/2015 23:20      72    52.8      9.01        62.2      83.1      53.7       2       3      72      53    1013    0.00
    05/28/2015 23:30      72    52.9      9.01        62.0      83.1      53.7       2       4      73      83    1013    0.00
    05/28/2015 23:40      72    52.9      9.01        61.9      83.1      53.7       2       4      68      77    1013    0.00
    05/28/2015 23:50      72    52.8      9.01        61.7      83.1      53.7       2       4      63      68    1013    0.00
    05/29/2015 00:00      72    52.6      9.01        61.6      83.1      53.7       2       4      59      43    1013    0.00
    05/29/2015 00:10      73    52.5      9.01        61.4      61.7      61.1       2       3      60      38    1013    0.00
    05/29/2015 00:20      73    52.5      9.01        61.3      61.7      61.1       2       4      49      31    1013    0.00
    05/29/2015 00:30      73    52.5      9.01        61.2      61.7      61.0       2       5      61      56    1013    0.00
    05/29/2015 00:40      73    52.4      9.01        61.0      61.7      60.8       3       5      52      37    1013    0.00
    05/29/2015 00:50      73    52.4      9.01        61.0      61.7      60.7       3       5      48      36    1013    0.00
    05/29/2015 01:00      73    52.3      9.01        61.0      61.7      60.7       2       5      62      57    1013    0.00
    05/29/2015 01:10      73    52.3      9.01        60.8      61.7      60.5       2       4      63      84    1013    0.00
    05/29/2015 01:20      74    52.2      9.01        60.6      61.7      60.3       1       3      65      58    1013    0.00
    05/29/2015 01:30      75    52.2      9.01        60.4      61.7      60.2       1       3      60      59    1013    0.00
    05/29/2015 01:40      75    52.2      9.01        60.2      61.7      60.0       2       3      70      70    1012    0.00
    05/29/2015 01:50      76    52.2      9.01        60.0      61.7      59.8       1       3      74      66    1012    0.00
    05/29/2015 02:00      76    52.3      9.01        59.8      61.7      59.5       1       2      80      99    1012    0.00
    05/29/2015 02:10      77    52.3      9.01        59.6      61.7      59.3       1       3      83      82    1012    0.00
    05/29/2015 02:20      78    52.4      9.01        59.3      61.7      59.1       1       2      72      84    1012    0.00
    05/29/2015 02:30      79    52.4      9.01        59.1      61.7      58.8       1       3      66      61    1012    0.00
    05/29/2015 02:40      79    52.4      9.01        58.9      61.7      58.7       1       2      70      76    1012    0.00
    05/29/2015 02:50      80    52.4      9.01        58.7      61.7      58.4       0       3      60      87    1012    0.00
    05/29/2015 03:00      80    52.4      9.01        58.5      61.7      58.3       1       4      69      69    1012    0.00
    05/29/2015 03:10      81    52.4      9.01        58.3      61.7      58.1       1       3      59      24    1012    0.00
    05/29/2015 03:20      81    52.4      9.01        58.2      61.7      57.9       1       3      72      79    1012    0.00
    05/29/2015 03:30      82    52.2      9.01        57.8      61.7      57.6       0       2      32      23    1012    0.00
    05/29/2015 03:40      82    52.2      9.01        57.6      61.7      57.4       0       1      33      30    1012    0.00
    05/29/2015 03:50      83    52.2      9.01        57.4      61.7      57.1       0       2      64      87    1012    0.00
    05/29/2015 04:00      83    52.4      9.01        57.5      61.7      57.1       1       2      66      72    1012    0.00
    05/29/2015 04:10      83    52.3      9.01        57.4      61.7      57.1       2       3      71      71    1012    0.00
    05/29/2015 04:20      84    52.1      9.01        57.1      61.7      56.9       2       3      77      69    1012    0.00
    05/29/2015 04:30      84    52.1      9.01        57.0      61.7      56.8       1       2      80      67    1012    0.00
    05/29/2015 04:40      84    52.0      9.01        56.8      61.7      56.6       1       3      75      80    1013    0.00
    05/29/2015 04:50      85    52.0      9.01        56.6      61.7      56.4       1       3      78      72    1013    0.00
    05/29/2015 05:00      85    52.0      9.01        56.5      61.7      56.3       2       3      76      65    1013    0.00
    05/29/2015 05:10      85    52.1      9.01        56.4      61.7      56.2       2       4     111      72    1013    0.00
    05/29/2015 05:20      86    51.9      9.01        56.1      61.7      55.8       2       4     119     131    1013    0.00
    05/29/2015 05:30      87    51.9      9.01        55.7      61.7      55.5       1       4     133     165    1013    0.00
    05/29/2015 05:40      88    52.1      9.01        55.7      61.7      55.5       1       3      77      73    1013    0.00
    05/29/2015 05:50      89    52.2      9.01        55.6      61.7      55.4       2       4      43      36    1013    0.00
    05/29/2015 06:00      89    52.6      9.01        55.8      61.7      55.4       2       4      87      68    1013    0.00
    05/29/2015 06:10      89    52.7      9.01        55.8      61.7      55.4       2       3     107     172    1013    0.00
    05/29/2015 06:20      89    53.0      9.01        56.0      61.7      55.4       2       4     131     141    1013    0.00
    05/29/2015 06:30      89    53.0      9.01        56.2      61.7      55.4       2       4     102     140    1013    0.00
    05/29/2015 06:40      89    53.3      9.01        56.4      61.7      55.4       2       3      56      34    1013    0.00
    05/29/2015 06:50      89    53.6      9.01        56.8      61.7      55.4       2       5      79      89    1013    0.00
    05/29/2015 07:00      88    53.3      9.01        56.8      61.7      55.4       3       5      86      77    1013    0.00
    05/29/2015 07:10      88    53.3      9.01        56.8      61.7      55.4       2       5     101      72    1014    0.00
    05/29/2015 07:20      87    53.4      9.01        57.0      61.7      55.4       2       4     138     154    1014    0.00
    05/29/2015 07:30      87    53.3      9.01        57.1      61.7      55.4       2       3     170     183    1014    0.00
    05/29/2015 07:40      87    53.5      9.01        57.4      61.7      55.4       1       3     119      75    1014    0.00
    05/29/2015 07:50      85    53.9      9.01        58.1      61.7      55.4       2       3      64      82    1014    0.00
    05/29/2015 08:00      83    53.9      9.01        58.8      61.7      55.4       2       5      30      53    1014    0.00
    05/29/2015 08:10      79    54.2      9.01        60.4      61.7      55.4       2       4      73      53    1014    0.00
    05/29/2015 08:20      73    53.9      9.01        62.0      62.6      55.4       2       4      75      85    1013    0.00
    05/29/2015 08:30      70    53.5      9.01        63.0      63.8      55.4       1       3      69      44    1013    0.00
    05/29/2015 08:40      67    53.5      9.01        64.3      64.8      55.4       0       2     150      92    1013    0.00
    05/29/2015 08:50      65    53.4      9.01        65.3      65.8      55.4       1       3     100     163    1013    0.00
    05/29/2015 09:00      66    53.5      9.01        65.4      65.8      55.4       2       4     205     210    1013    0.00
    05/29/2015 09:10      62    53.7      9.01        66.3      67.4      55.4       0       2     160     209    1013    0.00
    05/29/2015 09:20      61    53.7      9.01        67.5      67.9      55.4       1       3     293     306    1013    0.00
    05/29/2015 09:30      57    54.2      9.01        68.6      69.6      55.4       2       6     183     144    1013    0.00
    05/29/2015 09:40      55    53.5      9.01        69.7      70.7      55.4       1       4     153     122    1013    0.00
    05/29/2015 09:50      49    53.5      9.01        71.5      72.5      55.4       3       5     165     168    1013    0.00
    05/29/2015 10:00      53    52.9      9.01        71.8      72.5      55.4       2       4     175     154    1013    0.00
    05/29/2015 10:10      50    52.6      9.01        72.2      72.7      55.4       3       6     123     150    1013    0.00
    05/29/2015 10:20      45    51.8      9.01        72.9      73.9      55.4       2       5     147     146    1013    0.00
    05/29/2015 10:30      47    51.4      9.01        74.0      74.7      55.4       3       5     101     152    1013    0.00
    05/29/2015 10:40      43    51.0      9.01        74.5      74.9      55.4       4       7     123      82    1013    0.00
    05/29/2015 10:50      42    51.5      9.01        75.3      76.5      55.4       4       9     157     157    1013    0.00
    05/29/2015 11:00      39    51.1      9.01        77.1      78.0      55.4       3       8     149     160    1013    0.00
    05/29/2015 11:10      35    48.6      9.01        78.0      78.5      55.4       2       6      70      61    1013    0.00
    05/29/2015 11:20      35    50.0      9.01        78.3      79.4      55.4       4       8     161     169    1013    0.00
    05/29/2015 11:30      36    48.7      9.01        78.7      79.7      55.4       2       5     105     157    1013    0.00
    05/29/2015 11:40      36    49.6      9.01        79.6      80.1      55.4       3       8     154     190    1012    0.00
    05/29/2015 11:50      33    49.1      9.01        79.9      80.9      55.4       3       6     169     158    1012    0.00
    05/29/2015 12:00      32    48.3      9.01        80.8      81.4      55.4       2       6      65      76    1012    0.00
    05/29/2015 12:10      32    49.2      9.01        82.4      83.2      55.4       2       6     117     159    1012    0.00
    05/29/2015 12:20      31    49.0      9.01        81.9      83.2      55.4       3       8     150     143    1012    0.00
    05/29/2015 12:30      30    48.8      9.01        82.7      83.8      55.4       2       6     150     126    1012    0.00
    05/29/2015 12:40      33    49.5      9.01        83.5      83.8      55.4       4       8     108      87    1012    0.00
    05/29/2015 12:50      31    49.4      9.01        83.8      84.4      55.4       4       9     123      96    1012    0.00